Time;durP1;ratioP1;P1;durP2;ratioP2;P2;SDS_P1;SDS_P2;PMS_P1;PMS_P2;Temp;Humidity;BMP_temperature;BMP_pressure;BME280_temperature;BME280_humidity;BME280_pressure;Samples;Min_cycle;Max_cycle;Signal;HPM_P1;HPM_P2
2023/09/19 00:00:57;;;;;;;0.80;0.80;;;;;;;;;;5134659;27;20458;-62
2023/09/19 00:03:25;;;;;;;0.80;0.80;;;;;;;;;;5134289;27;20441;-62
2023/09/19 00:05:55;;;;;;;0.70;0.70;;;;;;;;;;5134612;27;20442;-63
2023/09/19 00:08:24;;;;;;;0.80;0.80;;;;;;;;;;5134385;27;20434;-62
2023/09/19 00:10:53;;;;;;;0.80;0.80;;;;;;;;;;5134366;27;20484;-63
2023/09/19 00:13:20;;;;;;;0.80;0.80;;;;;;;;;;5135013;27;20507;-62
2023/09/19 00:15:49;;;;;;;0.80;0.80;;;;;;;;;;5134444;27;20439;-63
2023/09/19 00:18:17;;;;;;;0.80;0.80;;;;;;;;;;5134882;27;20429;-62
2023/09/19 00:20:47;;;;;;;0.70;0.70;;;;;;;;;;5134931;27;20471;-63
2023/09/19 00:23:16;;;;;;;0.80;0.80;;;;;;;;;;5134074;27;20937;-62
2023/09/19 00:25:43;;;;;;;0.80;0.80;;;;;;;;;;5135160;27;20464;-63
2023/09/19 00:28:11;;;;;;;0.70;0.70;;;;;;;;;;5133996;27;20507;-62
2023/09/19 00:30:39;;;;;;;0.70;0.70;;;;;;;;;;5134142;27;20997;-62
2023/09/19 00:33:07;;;;;;;0.70;0.70;;;;;;;;;;5134307;27;20942;-62
2023/09/19 00:35:34;;;;;;;0.70;0.70;;;;;;;;;;5133959;27;20809;-62
2023/09/19 00:38:03;;;;;;;0.97;0.97;;;;;;;;;;5134177;27;20443;-63
2023/09/19 00:40:33;;;;;;;0.70;0.70;;;;;;;;;;5133795;27;20506;-62
2023/09/19 00:43:00;;;;;;;0.73;0.73;;;;;;;;;;5134090;27;20447;-62
2023/09/19 00:45:28;;;;;;;0.80;0.80;;;;;;;;;;5133989;27;20425;-62
2023/09/19 00:47:56;;;;;;;0.70;0.70;;;;;;;;;;5133634;27;20437;-62
2023/09/19 00:50:26;;;;;;;0.70;0.70;;;;;;;;;;5133857;27;20508;-62
2023/09/19 00:52:55;;;;;;;0.80;0.80;;;;;;;;;;5134414;28;20427;-62
2023/09/19 00:55:23;;;;;;;0.80;0.80;;;;;;;;;;5133928;28;20432;-62
2023/09/19 00:57:52;;;;;;;0.80;0.80;;;;;;;;;;5133817;28;20843;-62
2023/09/19 01:00:20;;;;;;;0.80;0.80;;;;;;;;;;5133585;28;20443;-62
2023/09/19 01:02:48;;;;;;;0.70;0.70;;;;;;;;;;5133333;28;20437;-62
2023/09/19 01:05:15;;;;;;;0.70;0.70;;;;;;;;;;5133558;28;20528;-63
2023/09/19 01:07:44;;;;;;;0.70;0.70;;;;;;;;;;5133684;28;20454;-62
2023/09/19 01:10:12;;;;;;;0.70;0.70;;;;;;;;;;5133616;28;20485;-62
2023/09/19 01:12:46;;;;;;;0.80;0.80;;;;;;;;;;5133643;28;20844;-62
2023/09/19 01:15:22;;;;;;;0.80;0.80;;;;;;;;;;5134324;28;20420;-62
2023/09/19 01:17:53;;;;;;;0.80;0.80;;;;;;;;;;5134189;28;20424;-62
2023/09/19 01:20:28;;;;;;;0.80;0.80;;;;;;;;;;5133765;28;20431;-62
2023/09/19 01:23:03;;;;;;;0.80;0.80;;;;;;;;;;5133814;28;20457;-62
2023/09/19 01:25:45;;;;;;;0.70;0.70;;;;;;;;;;5134068;28;20578;-62
2023/09/19 01:28:21;;;;;;;0.80;0.80;;;;;;;;;;5133697;28;20512;-62
2023/09/19 01:30:54;;;;;;;0.70;0.70;;;;;;;;;;5133390;28;20470;-63
2023/09/19 01:33:21;;;;;;;0.80;0.80;;;;;;;;;;5133688;28;20816;-64
2023/09/19 01:35:49;;;;;;;0.80;0.80;;;;;;;;;;5133602;28;20533;-63
2023/09/19 01:38:16;;;;;;;0.70;0.70;;;;;;;;;;5133473;28;20440;-65
2023/09/19 01:40:44;;;;;;;0.80;0.80;;;;;;;;;;5133848;28;20446;-62
2023/09/19 01:43:15;;;;;;;0.70;0.70;;;;;;;;;;5133119;28;20946;-62
2023/09/19 01:45:48;;;;;;;0.70;0.70;;;;;;;;;;5133503;28;20518;-63
2023/09/19 01:48:21;;;;;;;0.70;0.70;;;;;;;;;;5136124;27;20526;-62
2023/09/19 01:50:52;;;;;;;0.80;0.80;;;;;;;;;;5137347;27;20563;-62
2023/09/19 01:53:23;;;;;;;0.70;0.70;;;;;;;;;;5137276;27;20451;-62
2023/09/19 01:55:51;;;;;;;0.70;0.70;;;;;;;;;;5137888;27;20418;-62
2023/09/19 01:58:22;;;;;;;0.80;0.80;;;;;;;;;;5137420;27;20527;-62
2023/09/19 02:00:51;;;;;;;0.70;0.70;;;;;;;;;;5137173;27;20426;-62
2023/09/19 02:03:22;;;;;;;0.70;0.70;;;;;;;;;;5136701;27;20444;-62
2023/09/19 02:05:51;;;;;;;0.70;0.70;;;;;;;;;;5137150;27;20428;-62
2023/09/19 02:08:19;;;;;;;0.80;0.80;;;;;;;;;;5137373;27;20443;-62
2023/09/19 02:10:48;;;;;;;0.80;0.80;;;;;;;;;;5136689;27;20460;-62
2023/09/19 02:13:16;;;;;;;0.77;0.77;;;;;;;;;;5136458;27;20508;-62
2023/09/19 02:15:45;;;;;;;0.80;0.80;;;;;;;;;;5136806;27;20428;-62
2023/09/19 02:18:12;;;;;;;0.80;0.80;;;;;;;;;;5136646;27;20450;-62
2023/09/19 02:20:41;;;;;;;0.70;0.70;;;;;;;;;;5136389;27;20441;-62
2023/09/19 02:23:09;;;;;;;0.80;0.80;;;;;;;;;;5136819;27;20548;-62
2023/09/19 02:25:37;;;;;;;0.80;0.80;;;;;;;;;;5136446;27;20508;-62
2023/09/19 02:28:05;;;;;;;0.80;0.80;;;;;;;;;;5136137;27;20444;-62
2023/09/19 02:30:32;;;;;;;0.80;0.80;;;;;;;;;;5136504;27;20448;-62
2023/09/19 02:33:01;;;;;;;0.80;0.80;;;;;;;;;;5136524;27;20483;-62
2023/09/19 02:35:29;;;;;;;0.80;0.80;;;;;;;;;;5136703;27;20434;-62
2023/09/19 02:37:57;;;;;;;0.80;0.80;;;;;;;;;;5135965;27;20439;-62
2023/09/19 02:40:25;;;;;;;0.70;0.70;;;;;;;;;;5135992;27;20434;-62
2023/09/19 02:42:54;;;;;;;0.80;0.80;;;;;;;;;;5136138;27;20457;-62
2023/09/19 02:45:22;;;;;;;0.80;0.80;;;;;;;;;;5135801;27;20485;-62
2023/09/19 02:47:50;;;;;;;0.70;0.70;;;;;;;;;;5136357;27;20800;-62
2023/09/19 02:50:17;;;;;;;0.80;0.80;;;;;;;;;;5135722;27;20969;-62
2023/09/19 02:52:47;;;;;;;0.70;0.70;;;;;;;;;;5135391;27;20471;-62
2023/09/19 02:55:17;;;;;;;0.80;0.80;;;;;;;;;;5135702;27;20436;-62
2023/09/19 02:57:47;;;;;;;0.80;0.80;;;;;;;;;;5136373;27;20425;-62
2023/09/19 03:00:14;;;;;;;0.70;0.70;;;;;;;;;;5135059;27;20823;-62
2023/09/19 03:02:42;;;;;;;0.70;0.70;;;;;;;;;;5135448;27;20506;-62
2023/09/19 03:05:12;;;;;;;0.80;0.80;;;;;;;;;;5135276;27;20507;-62
2023/09/19 03:07:39;;;;;;;0.80;0.80;;;;;;;;;;5135415;27;20536;-61
2023/09/19 03:10:07;;;;;;;0.80;0.80;;;;;;;;;;5135577;27;20432;-62
2023/09/19 03:12:36;;;;;;;0.80;0.80;;;;;;;;;;5135153;27;20472;-62
2023/09/19 03:15:04;;;;;;;0.80;0.80;;;;;;;;;;5135335;27;20447;-62
2023/09/19 03:17:32;;;;;;;0.80;0.80;;;;;;;;;;5135223;27;20444;-62
2023/09/19 03:19:59;;;;;;;0.73;0.73;;;;;;;;;;5135349;27;20441;-62
2023/09/19 03:22:28;;;;;;;0.80;0.80;;;;;;;;;;5135306;27;20540;-62
2023/09/19 03:24:55;;;;;;;0.70;0.70;;;;;;;;;;5135122;27;20515;-62
2023/09/19 03:27:22;;;;;;;0.80;0.80;;;;;;;;;;5135003;27;20448;-62
2023/09/19 03:29:51;;;;;;;0.80;0.80;;;;;;;;;;5135329;27;20429;-62
2023/09/19 03:32:18;;;;;;;0.80;0.80;;;;;;;;;;5135273;27;20537;-61
2023/09/19 03:34:48;;;;;;;0.80;0.80;;;;;;;;;;5135203;27;20952;-63
2023/09/19 03:37:15;;;;;;;0.80;0.80;;;;;;;;;;5135327;27;20770;-62
2023/09/19 03:39:43;;;;;;;0.80;0.80;;;;;;;;;;5134761;27;20440;-62
2023/09/19 03:42:10;;;;;;;0.70;0.70;;;;;;;;;;5135304;27;20443;-62
2023/09/19 03:44:37;;;;;;;0.80;0.80;;;;;;;;;;5135379;27;20429;-62
2023/09/19 03:47:06;;;;;;;0.80;0.80;;;;;;;;;;5134738;27;20627;-62
2023/09/19 03:49:35;;;;;;;0.80;0.80;;;;;;;;;;5134612;27;20941;-61
2023/09/19 03:52:02;;;;;;;0.80;0.80;;;;;;;;;;5134619;27;20570;-62
2023/09/19 03:54:29;;;;;;;0.80;0.80;;;;;;;;;;5135094;27;20449;-62
2023/09/19 03:56:57;;;;;;;0.70;0.70;;;;;;;;;;5133626;27;20519;-62
2023/09/19 03:59:24;;;;;;;0.80;0.80;;;;;;;;;;5133766;27;20541;-62
2023/09/19 04:01:55;;;;;;;0.80;0.80;;;;;;;;;;5133556;27;21028;-62
2023/09/19 04:04:24;;;;;;;0.80;0.80;;;;;;;;;;5134254;27;20445;-62
2023/09/19 04:06:52;;;;;;;0.80;0.80;;;;;;;;;;5134305;27;20524;-62
2023/09/19 04:09:19;;;;;;;0.80;0.80;;;;;;;;;;5133755;27;20509;-62
2023/09/19 04:11:46;;;;;;;0.80;0.80;;;;;;;;;;5133984;27;20498;-62
2023/09/19 04:14:13;;;;;;;0.80;0.80;;;;;;;;;;5134410;27;20433;-62
2023/09/19 04:16:40;;;;;;;0.77;0.77;;;;;;;;;;5134081;27;20445;-62
2023/09/19 04:19:08;;;;;;;0.80;0.80;;;;;;;;;;5134415;27;20611;-63
2023/09/19 04:21:36;;;;;;;0.80;0.80;;;;;;;;;;5133990;27;20440;-62
2023/09/19 04:24:04;;;;;;;0.83;0.83;;;;;;;;;;5133624;27;20467;-62
2023/09/19 04:26:31;;;;;;;0.80;0.80;;;;;;;;;;5134057;27;20787;-62
2023/09/19 04:28:58;;;;;;;0.80;0.80;;;;;;;;;;5134021;27;20441;-62
2023/09/19 04:31:25;;;;;;;0.80;0.80;;;;;;;;;;5134029;27;20445;-62
2023/09/19 04:33:53;;;;;;;0.80;0.80;;;;;;;;;;5133957;27;20436;-62
2023/09/19 04:36:22;;;;;;;0.80;0.80;;;;;;;;;;5133974;27;20439;-64
2023/09/19 04:38:51;;;;;;;0.70;0.70;;;;;;;;;;5134080;27;20497;-63
2023/09/19 04:41:18;;;;;;;0.80;0.80;;;;;;;;;;5133963;27;20435;-63
2023/09/19 04:43:45;;;;;;;0.87;0.87;;;;;;;;;;5133881;27;20513;-63
2023/09/19 04:46:14;;;;;;;0.80;0.80;;;;;;;;;;5133834;27;20524;-63
2023/09/19 04:48:41;;;;;;;0.70;0.70;;;;;;;;;;5133659;27;20801;-63
2023/09/19 04:51:08;;;;;;;0.83;0.83;;;;;;;;;;5133963;27;20447;-63
2023/09/19 04:53:35;;;;;;;0.80;0.80;;;;;;;;;;5133421;28;20494;-62
2023/09/19 04:56:06;;;;;;;0.80;0.80;;;;;;;;;;5133419;28;20535;-62
2023/09/19 04:58:33;;;;;;;0.80;0.80;;;;;;;;;;5133814;28;20467;-62
2023/09/19 05:01:04;;;;;;;0.80;0.80;;;;;;;;;;5133787;28;20440;-62
2023/09/19 05:03:31;;;;;;;0.80;0.80;;;;;;;;;;5134299;28;20898;-63
2023/09/19 05:05:58;;;;;;;0.80;0.80;;;;;;;;;;5133692;28;20473;-62
2023/09/19 05:08:26;;;;;;;0.73;0.73;;;;;;;;;;5133499;28;20496;-62
2023/09/19 05:10:55;;;;;;;0.80;0.80;;;;;;;;;;5133314;28;20526;-62
2023/09/19 05:13:24;;;;;;;0.80;0.80;;;;;;;;;;5133681;28;20482;-62
2023/09/19 05:15:51;;;;;;;0.77;0.77;;;;;;;;;;5133237;28;20527;-62
2023/09/19 05:18:18;;;;;;;0.80;0.80;;;;;;;;;;5133554;28;20531;-62
2023/09/19 05:20:45;;;;;;;0.80;0.80;;;;;;;;;;5133501;28;20513;-62
2023/09/19 05:23:13;;;;;;;0.80;0.80;;;;;;;;;;5136226;27;20435;-62
2023/09/19 05:25:40;;;;;;;0.80;0.80;;;;;;;;;;5137805;27;20472;-62
2023/09/19 05:28:08;;;;;;;0.80;0.80;;;;;;;;;;5137709;27;20439;-62
2023/09/19 05:30:38;;;;;;;0.80;0.80;;;;;;;;;;5137279;27;20444;-63
2023/09/19 05:33:05;;;;;;;0.80;0.80;;;;;;;;;;5137716;27;20489;-63
2023/09/19 05:35:33;;;;;;;0.80;0.80;;;;;;;;;;5137444;27;20432;-63
2023/09/19 05:38:01;;;;;;;0.80;0.80;;;;;;;;;;5137418;27;20451;-63
2023/09/19 05:40:28;;;;;;;0.80;0.80;;;;;;;;;;5137094;27;20435;-63
2023/09/19 05:42:55;;;;;;;0.80;0.80;;;;;;;;;;5137329;27;20975;-63
2023/09/19 05:45:23;;;;;;;0.80;0.80;;;;;;;;;;5137556;27;20807;-63
2023/09/19 05:47:55;;;;;;;0.80;0.80;;;;;;;;;;5137221;27;20458;-62
2023/09/19 05:50:24;;;;;;;0.77;0.77;;;;;;;;;;5136998;27;20417;-63
2023/09/19 05:52:55;;;;;;;0.80;0.80;;;;;;;;;;5137513;27;20848;-63
2023/09/19 05:55:24;;;;;;;0.80;0.80;;;;;;;;;;5137091;27;20531;-63
2023/09/19 05:57:52;;;;;;;0.80;0.80;;;;;;;;;;5136924;27;20526;-62
2023/09/19 06:00:22;;;;;;;0.80;0.80;;;;;;;;;;5136901;27;20439;-62
2023/09/19 06:02:52;;;;;;;0.80;0.80;;;;;;;;;;5136859;27;20498;-63
2023/09/19 06:05:19;;;;;;;0.70;0.70;;;;;;;;;;5136978;27;20530;-63
2023/09/19 06:07:46;;;;;;;0.80;0.80;;;;;;;;;;5136608;27;20450;-62
2023/09/19 06:10:14;;;;;;;0.80;0.80;;;;;;;;;;5136828;27;20815;-63
2023/09/19 06:12:43;;;;;;;0.73;0.73;;;;;;;;;;5136345;27;20502;-63
2023/09/19 06:15:14;;;;;;;0.80;0.80;;;;;;;;;;5136956;27;20524;-63
2023/09/19 06:17:42;;;;;;;0.70;0.70;;;;;;;;;;5137098;27;20461;-63
2023/09/19 06:20:14;;;;;;;0.80;0.80;;;;;;;;;;5136313;27;20967;-63
2023/09/19 06:22:42;;;;;;;0.80;0.80;;;;;;;;;;5136625;27;20447;-63
2023/09/19 06:25:11;;;;;;;0.77;0.77;;;;;;;;;;5136049;27;20485;-63
2023/09/19 06:27:39;;;;;;;0.80;0.80;;;;;;;;;;5136160;27;20493;-62
2023/09/19 06:30:07;;;;;;;0.70;0.70;;;;;;;;;;5136767;27;20464;-62
2023/09/19 06:32:35;;;;;;;0.70;0.70;;;;;;;;;;5136320;27;20874;-62
2023/09/19 06:35:02;;;;;;;0.80;0.80;;;;;;;;;;5135654;27;20500;-63
2023/09/19 06:37:31;;;;;;;0.80;0.80;;;;;;;;;;5136274;27;20436;-63
2023/09/19 06:39:58;;;;;;;0.80;0.80;;;;;;;;;;5136376;27;20777;-63
2023/09/19 06:42:28;;;;;;;0.80;0.80;;;;;;;;;;5136366;27;20452;-63
2023/09/19 06:44:56;;;;;;;0.70;0.70;;;;;;;;;;5136556;27;20450;-62
2023/09/19 06:47:25;;;;;;;0.80;0.80;;;;;;;;;;5136329;27;20448;-63
2023/09/19 06:49:53;;;;;;;0.70;0.70;;;;;;;;;;5136265;27;20438;-62
2023/09/19 06:52:22;;;;;;;0.80;0.80;;;;;;;;;;5136248;27;20475;-62
2023/09/19 06:54:52;;;;;;;0.70;0.70;;;;;;;;;;5136694;27;20540;-63
2023/09/19 06:57:19;;;;;;;0.70;0.70;;;;;;;;;;5135681;27;20425;-62
2023/09/19 06:59:47;;;;;;;0.90;0.90;;;;;;;;;;5135881;27;20448;-63
2023/09/19 07:02:14;;;;;;;0.80;0.80;;;;;;;;;;5135839;27;20778;-62
2023/09/19 07:04:41;;;;;;;0.80;0.80;;;;;;;;;;5136123;27;20445;-62
2023/09/19 07:07:10;;;;;;;0.70;0.70;;;;;;;;;;5135964;27;20835;-62
2023/09/19 07:09:37;;;;;;;0.70;0.70;;;;;;;;;;5135456;27;20953;-62
2023/09/19 07:12:07;;;;;;;0.80;0.80;;;;;;;;;;5135178;27;20448;-62
2023/09/19 07:14:34;;;;;;;0.70;0.70;;;;;;;;;;5136061;27;20543;-62
2023/09/19 07:17:03;;;;;;;0.70;0.70;;;;;;;;;;5135474;27;20436;-62
2023/09/19 07:19:31;;;;;;;0.80;0.80;;;;;;;;;;5135615;27;20447;-62
2023/09/19 07:21:59;;;;;;;0.80;0.80;;;;;;;;;;5135465;27;20497;-63
2023/09/19 07:24:28;;;;;;;0.80;0.80;;;;;;;;;;5135452;27;20465;-62
2023/09/19 07:26:55;;;;;;;0.70;0.70;;;;;;;;;;5135051;27;20873;-63
2023/09/19 07:29:26;;;;;;;0.70;0.70;;;;;;;;;;5135302;27;20436;-63
2023/09/19 07:31:53;;;;;;;0.70;0.70;;;;;;;;;;5135409;27;20423;-63
2023/09/19 07:34:21;;;;;;;0.80;0.80;;;;;;;;;;5134915;27;20480;-62
2023/09/19 07:36:48;;;;;;;0.70;0.70;;;;;;;;;;5135126;27;20434;-62
2023/09/19 07:39:16;;;;;;;0.80;0.80;;;;;;;;;;5134882;27;20464;-62
2023/09/19 07:41:43;;;;;;;0.80;0.80;;;;;;;;;;5135161;27;20527;-63
2023/09/19 07:44:10;;;;;;;0.70;0.70;;;;;;;;;;5135091;27;20442;-63
2023/09/19 07:46:39;;;;;;;0.70;0.70;;;;;;;;;;5134664;27;20443;-63
2023/09/19 07:49:06;;;;;;;0.70;0.70;;;;;;;;;;5134675;27;20437;-62
2023/09/19 07:51:34;;;;;;;0.70;0.70;;;;;;;;;;5134633;27;20440;-63
2023/09/19 07:54:01;;;;;;;0.80;0.80;;;;;;;;;;5135025;27;20485;-63
2023/09/19 07:56:28;;;;;;;0.80;0.80;;;;;;;;;;5134664;27;20435;-63
2023/09/19 07:58:58;;;;;;;0.70;0.70;;;;;;;;;;5134501;27;20921;-63
2023/09/19 08:01:27;;;;;;;0.80;0.80;;;;;;;;;;5134007;27;20938;-63
2023/09/19 08:03:55;;;;;;;0.70;0.70;;;;;;;;;;5134494;27;20457;-63
2023/09/19 08:06:23;;;;;;;0.80;0.80;;;;;;;;;;5134583;27;20549;-62
2023/09/19 08:08:54;;;;;;;0.80;0.80;;;;;;;;;;5134837;27;20429;-62
2023/09/19 08:11:24;;;;;;;0.80;0.80;;;;;;;;;;5134621;27;20412;-62
2023/09/19 08:13:52;;;;;;;0.80;0.80;;;;;;;;;;5134505;27;20512;-62
2023/09/19 08:16:22;;;;;;;0.80;0.80;;;;;;;;;;5134173;27;20472;-62
2023/09/19 08:18:54;;;;;;;0.70;0.70;;;;;;;;;;5134325;27;20491;-63
2023/09/19 08:21:24;;;;;;;0.80;0.80;;;;;;;;;;5134709;27;20442;-63
2023/09/19 08:23:51;;;;;;;0.80;0.80;;;;;;;;;;5133767;27;20971;-63
2023/09/19 08:26:19;;;;;;;0.80;0.80;;;;;;;;;;5134007;27;20478;-63
2023/09/19 08:28:48;;;;;;;0.70;0.70;;;;;;;;;;5134103;27;20750;-62
2023/09/19 08:31:16;;;;;;;0.70;0.70;;;;;;;;;;5133930;27;20443;-63
2023/09/19 08:33:44;;;;;;;0.70;0.70;;;;;;;;;;5134317;27;20487;-63
2023/09/19 08:36:14;;;;;;;0.70;0.70;;;;;;;;;;5134126;27;20452;-63
2023/09/19 08:38:42;;;;;;;0.70;0.70;;;;;;;;;;5133747;27;20447;-63
2023/09/19 08:41:09;;;;;;;0.70;0.70;;;;;;;;;;5134148;27;20520;-63
2023/09/19 08:43:37;;;;;;;0.80;0.80;;;;;;;;;;5134227;27;20442;-63
2023/09/19 08:46:11;;;;;;;0.70;0.70;;;;;;;;;;5133783;27;20440;-63
2023/09/19 08:48:40;;;;;;;0.80;0.80;;;;;;;;;;5133695;27;20425;-63
2023/09/19 08:51:08;;;;;;;1.23;1.13;;;;;;;;;;5133936;27;20979;-63
2023/09/19 08:53:45;;;;;;;0.70;0.70;;;;;;;;;;5134114;27;20900;-63
2023/09/19 08:56:15;;;;;;;0.80;0.80;;;;;;;;;;5133865;27;20419;-63
2023/09/19 08:58:47;;;;;;;0.70;0.70;;;;;;;;;;5133734;28;20497;-63
2023/09/19 09:01:16;;;;;;;0.70;0.70;;;;;;;;;;5133694;28;20427;-63
2023/09/19 09:03:46;;;;;;;0.80;0.80;;;;;;;;;;5133525;28;20446;-63
2023/09/19 09:06:16;;;;;;;0.80;0.80;;;;;;;;;;5133557;28;20511;-63
2023/09/19 09:08:43;;;;;;;0.70;0.70;;;;;;;;;;5133652;28;20508;-63
2023/09/19 09:11:11;;;;;;;0.80;0.80;;;;;;;;;;5134108;28;20862;-63
2023/09/19 09:13:41;;;;;;;0.70;0.70;;;;;;;;;;5133205;28;20514;-63
2023/09/19 09:16:08;;;;;;;0.70;0.70;;;;;;;;;;5133442;28;20430;-63
2023/09/19 09:18:35;;;;;;;1.53;1.43;;;;;;;;;;5133515;28;20486;-62
2023/09/19 09:21:03;;;;;;;0.80;0.80;;;;;;;;;;5133410;28;20952;-63
2023/09/19 09:23:32;;;;;;;0.80;0.80;;;;;;;;;;5133882;28;20462;-63
2023/09/19 09:26:02;;;;;;;0.80;0.80;;;;;;;;;;5113069;28;20440;-63
2023/09/19 09:28:30;;;;;;;0.70;0.70;;;;;;;;;;5113536;28;20822;-63
2023/09/19 09:30:59;;;;;;;0.70;0.70;;;;;;;;;;5112771;28;20907;-62
2023/09/19 09:33:27;;;;;;;0.70;0.70;;;;;;;;;;5112583;28;20475;-63
2023/09/19 09:35:56;;;;;;;0.70;0.70;;;;;;;;;;5113116;28;20448;-63
2023/09/19 09:38:27;;;;;;;0.70;0.70;;;;;;;;;;5112968;28;20441;-63
2023/09/19 09:41:00;;;;;;;0.70;0.70;;;;;;;;;;5112782;28;20421;-63
2023/09/19 09:43:28;;;;;;;0.80;0.80;;;;;;;;;;5112778;28;20432;-63
2023/09/19 09:46:50;;;;;;;0.70;0.70;;;;;;;;;;5112666;28;21010;-63
2023/09/19 09:49:15;;;;;;;0.70;0.70;;;;;;;;;;5112497;28;20433;-63
2023/09/19 09:51:45;;;;;;;0.70;0.70;;;;;;;;;;5112720;28;20418;-63
2023/09/19 09:54:14;;;;;;;0.80;0.80;;;;;;;;;;5112350;28;20476;-63
2023/09/19 09:56:54;;;;;;;0.70;0.70;;;;;;;;;;5112519;28;20445;-63
2023/09/19 09:59:23;;;;;;;0.80;0.80;;;;;;;;;;5112464;28;20428;-61
2023/09/19 10:01:53;;;;;;;0.70;0.70;;;;;;;;;;5113724;28;20437;-61
2023/09/19 10:04:31;;;;;;;0.70;0.70;;;;;;;;;;5112691;28;20444;-61
2023/09/19 10:07:04;;;;;;;0.70;0.70;;;;;;;;;;5112989;28;20495;-62
2023/09/19 10:09:36;;;;;;;0.70;0.70;;;;;;;;;;5116031;28;20493;-61
2023/09/19 10:12:05;;;;;;;0.70;0.70;;;;;;;;;;5116838;28;20750;-62
2023/09/19 10:14:35;;;;;;;0.70;0.70;;;;;;;;;;5116170;28;20476;-62
2023/09/19 10:17:06;;;;;;;0.70;0.70;;;;;;;;;;5116507;28;20525;-62
2023/09/19 10:19:39;;;;;;;0.70;0.70;;;;;;;;;;5116275;28;20492;-63
2023/09/19 10:22:09;;;;;;;0.70;0.70;;;;;;;;;;5116640;28;20446;-63
2023/09/19 10:24:38;;;;;;;0.80;0.80;;;;;;;;;;5124886;27;20526;-63
2023/09/19 10:27:08;;;;;;;0.70;0.70;;;;;;;;;;5136840;27;20490;-63
2023/09/19 10:29:36;;;;;;;0.70;0.70;;;;;;;;;;5136973;27;20434;-64
2023/09/19 10:32:06;;;;;;;0.70;0.70;;;;;;;;;;5136273;27;20535;-64
2023/09/19 10:34:35;;;;;;;0.70;0.70;;;;;;;;;;5136969;27;20484;-63
2023/09/19 10:37:05;;;;;;;0.70;0.70;;;;;;;;;;5136429;27;20439;-61
2023/09/19 10:39:33;;;;;;;0.70;0.70;;;;;;;;;;5136617;27;20429;-61
2023/09/19 10:42:05;;;;;;;0.70;0.70;;;;;;;;;;5136169;27;20441;-63
2023/09/19 10:44:34;;;;;;;0.70;0.70;;;;;;;;;;5136437;27;20430;-63
2023/09/19 10:47:02;;;;;;;0.70;0.70;;;;;;;;;;5136346;27;20793;-63
2023/09/19 10:49:32;;;;;;;0.70;0.70;;;;;;;;;;5136212;27;20437;-63
2023/09/19 10:52:01;;;;;;;0.70;0.70;;;;;;;;;;5136800;27;20428;-63
2023/09/19 10:54:30;;;;;;;0.70;0.70;;;;;;;;;;5136354;27;20485;-63
2023/09/19 10:56:59;;;;;;;0.70;0.70;;;;;;;;;;5136287;27;20526;-64
2023/09/19 10:59:34;;;;;;;0.70;0.70;;;;;;;;;;5135889;27;20540;-63
2023/09/19 11:02:02;;;;;;;0.70;0.70;;;;;;;;;;5135716;27;20420;-63
2023/09/19 11:04:32;;;;;;;0.70;0.70;;;;;;;;;;5135597;27;20850;-64
2023/09/19 11:07:04;;;;;;;0.70;0.70;;;;;;;;;;5135930;27;20436;-62
2023/09/19 11:09:57;;;;;;;0.70;0.70;;;;;;;;;;5135683;27;20555;-62
2023/09/19 11:12:45;;;;;;;0.70;0.70;;;;;;;;;;5112839;27;20443;-62
2023/09/19 11:15:33;;;;;;;0.70;0.70;;;;;;;;;;5135898;27;20511;-62
2023/09/19 11:18:04;;;;;;;0.70;0.70;;;;;;;;;;5135261;27;20941;-62
2023/09/19 11:20:41;;;;;;;0.80;0.80;;;;;;;;;;5135282;27;20471;-62
2023/09/19 11:23:26;;;;;;;0.70;0.70;;;;;;;;;;5135365;27;20453;-62
2023/09/19 11:25:54;;;;;;;0.70;0.70;;;;;;;;;;5115915;27;20465;-62
2023/09/19 11:28:35;;;;;;;0.70;0.70;;;;;;;;;;5114939;28;20473;-62
2023/09/19 11:31:17;;;;;;;0.70;0.70;;;;;;;;;;5114346;28;20423;-67
2023/09/19 11:33:49;;;;;;;0.70;0.70;;;;;;;;;;5114614;28;20517;-63
2023/09/19 11:36:19;;;;;;;0.70;0.70;;;;;;;;;;5114659;28;20527;-64
2023/09/19 11:39:08;;;;;;;0.70;0.70;;;;;;;;;;5115522;28;20454;-64
2023/09/19 11:41:39;;;;;;;0.70;0.70;;;;;;;;;;5114735;28;20449;-64
2023/09/19 11:44:24;;;;;;;0.80;0.80;;;;;;;;;;5114595;28;20530;-63
2023/09/19 11:46:56;;;;;;;0.70;0.70;;;;;;;;;;5114517;28;20435;-63
2023/09/19 11:49:29;;;;;;;0.70;0.70;;;;;;;;;;5113403;28;20434;-64
2023/09/19 11:51:57;;;;;;;0.70;0.70;;;;;;;;;;5093348;28;20530;-63
2023/09/19 11:54:28;;;;;;;0.70;0.70;;;;;;;;;;5092857;28;20491;-63
2023/09/19 11:56:55;;;;;;;0.70;0.70;;;;;;;;;;5093265;28;20487;-63
2023/09/19 11:59:23;;;;;;;0.70;0.70;;;;;;;;;;5093517;28;20441;-63
2023/09/19 12:01:57;;;;;;;0.70;0.70;;;;;;;;;;5093258;28;20473;-62
2023/09/19 12:04:35;;;;;;;0.70;0.70;;;;;;;;;;5093459;28;20445;-63
2023/09/19 12:07:04;;;;;;;0.70;0.70;;;;;;;;;;5093727;28;20447;-63
2023/09/19 12:09:31;;;;;;;0.70;0.70;;;;;;;;;;5093090;28;20437;-63
2023/09/19 12:11:59;;;;;;;0.70;0.70;;;;;;;;;;5093692;28;20432;-63
2023/09/19 12:14:27;;;;;;;0.70;0.70;;;;;;;;;;5093498;28;20565;-62
2023/09/19 12:16:56;;;;;;;0.70;0.70;;;;;;;;;;5093716;28;20428;-63
2023/09/19 12:19:23;;;;;;;0.70;0.70;;;;;;;;;;5093486;28;20883;-63
2023/09/19 12:21:59;;;;;;;1.00;1.00;;;;;;;;;;5092889;28;20538;-64
2023/09/19 12:24:30;;;;;;;0.70;0.70;;;;;;;;;;5100685;28;20478;-63
2023/09/19 12:27:04;;;;;;;0.70;0.70;;;;;;;;;;5113780;28;20422;-63
2023/09/19 12:29:32;;;;;;;0.70;0.70;;;;;;;;;;5113341;28;20427;-63
2023/09/19 12:32:03;;;;;;;0.70;0.70;;;;;;;;;;5112829;28;20434;-63
2023/09/19 12:34:34;;;;;;;0.70;0.70;;;;;;;;;;5114045;28;20465;-63
2023/09/19 12:37:20;;;;;;;0.70;0.70;;;;;;;;;;5113824;28;20801;-62
2023/09/19 12:39:50;;;;;;;0.70;0.70;;;;;;;;;;5113776;28;20438;-63
2023/09/19 12:42:18;;;;;;;0.80;0.80;;;;;;;;;;5113461;28;20459;-63
2023/09/19 12:44:47;;;;;;;0.70;0.70;;;;;;;;;;5113464;28;20788;-63
2023/09/19 12:47:19;;;;;;;0.70;0.70;;;;;;;;;;5113611;28;20437;-63
2023/09/19 12:50:06;;;;;;;0.70;0.70;;;;;;;;;;5113355;28;20864;-63
2023/09/19 12:52:37;;;;;;;0.70;0.70;;;;;;;;;;5113231;28;20435;-63
2023/09/19 12:55:06;;;;;;;0.70;0.70;;;;;;;;;;5113836;28;20840;-63
2023/09/19 12:57:34;;;;;;;0.70;0.70;;;;;;;;;;5126865;28;20465;-63
2023/09/19 13:00:02;;;;;;;0.70;0.70;;;;;;;;;;5133578;28;20851;-63
2023/09/19 13:02:29;;;;;;;0.70;0.70;;;;;;;;;;5133691;28;20589;-63
2023/09/19 13:04:59;;;;;;;0.70;0.70;;;;;;;;;;5133688;28;20990;-63
2023/09/19 13:07:44;;;;;;;0.70;0.70;;;;;;;;;;5133602;28;20487;-63
2023/09/19 13:10:15;;;;;;;0.70;0.70;;;;;;;;;;5133221;28;20490;-63
2023/09/19 13:12:44;;;;;;;0.70;0.70;;;;;;;;;;5133856;28;20446;-63
2023/09/19 13:15:13;;;;;;;0.70;0.70;;;;;;;;;;5133377;28;20480;-63
2023/09/19 13:17:48;;;;;;;0.70;0.70;;;;;;;;;;5133839;28;20442;-64
2023/09/19 13:20:27;;;;;;;0.80;0.80;;;;;;;;;;5133675;28;20792;-63
2023/09/19 13:22:58;;;;;;;0.70;0.70;;;;;;;;;;5133369;28;20426;-63
2023/09/19 13:25:29;;;;;;;0.70;0.70;;;;;;;;;;5133809;28;20481;-63
2023/09/19 13:27:57;;;;;;;0.70;0.70;;;;;;;;;;5133585;28;20515;-64
2023/09/19 13:30:25;;;;;;;0.70;0.70;;;;;;;;;;5133230;28;20529;-62
2023/09/19 13:32:53;;;;;;;0.70;0.70;;;;;;;;;;5133507;28;20910;-63
2023/09/19 13:35:21;;;;;;;0.70;0.70;;;;;;;;;;5133276;28;20473;-63
2023/09/19 13:37:51;;;;;;;0.70;0.70;;;;;;;;;;5133281;28;20469;-63
2023/09/19 13:40:18;;;;;;;0.70;0.70;;;;;;;;;;5133495;28;20824;-63
2023/09/19 13:42:47;;;;;;;0.70;0.70;;;;;;;;;;5132939;27;20438;-63
2023/09/19 13:45:17;;;;;;;0.70;0.70;;;;;;;;;;5137140;27;20493;-63
2023/09/19 13:47:44;;;;;;;0.70;0.70;;;;;;;;;;5137262;27;20803;-63
2023/09/19 13:50:11;;;;;;;0.70;0.70;;;;;;;;;;5136908;27;20531;-63
2023/09/19 13:52:39;;;;;;;0.70;0.70;;;;;;;;;;5137097;27;20460;-63
2023/09/19 13:55:07;;;;;;;0.70;0.70;;;;;;;;;;5137167;27;20473;-63
2023/09/19 13:57:34;;;;;;;0.70;0.70;;;;;;;;;;5137040;27;20441;-62
2023/09/19 14:00:05;;;;;;;0.70;0.70;;;;;;;;;;5136738;27;20520;-63
2023/09/19 14:02:32;;;;;;;0.80;0.80;;;;;;;;;;5136535;27;20505;-64
2023/09/19 14:04:59;;;;;;;0.70;0.70;;;;;;;;;;5136934;27;20504;-63
2023/09/19 14:07:26;;;;;;;0.70;0.70;;;;;;;;;;5136587;27;20441;-63
2023/09/19 14:09:54;;;;;;;0.70;0.70;;;;;;;;;;5136516;27;20923;-64
2023/09/19 14:12:21;;;;;;;0.70;0.70;;;;;;;;;;5136753;27;20434;-63
2023/09/19 14:14:50;;;;;;;0.70;0.70;;;;;;;;;;5136408;27;20981;-63
2023/09/19 14:17:19;;;;;;;0.70;0.70;;;;;;;;;;5136349;27;20437;-63
2023/09/19 14:19:46;;;;;;;0.70;0.70;;;;;;;;;;5136204;27;20938;-64
2023/09/19 14:22:14;;;;;;;0.70;0.70;;;;;;;;;;5136582;27;20475;-64
2023/09/19 14:24:42;;;;;;;0.70;0.70;;;;;;;;;;5135931;27;20460;-63
2023/09/19 14:27:10;;;;;;;0.70;0.70;;;;;;;;;;5136628;27;20437;-63
2023/09/19 14:29:37;;;;;;;0.70;0.70;;;;;;;;;;5136187;27;20442;-64
2023/09/19 14:32:05;;;;;;;0.70;0.70;;;;;;;;;;5136091;27;20440;-68
2023/09/19 14:34:33;;;;;;;0.70;0.70;;;;;;;;;;5136122;27;20867;-69
2023/09/19 14:37:01;;;;;;;0.70;0.70;;;;;;;;;;5136065;27;20441;-61
2023/09/19 14:39:28;;;;;;;0.73;0.73;;;;;;;;;;5136231;27;20531;-62
2023/09/19 14:41:55;;;;;;;0.70;0.70;;;;;;;;;;5135947;27;20441;-62
2023/09/19 14:44:23;;;;;;;0.70;0.70;;;;;;;;;;5135539;27;20444;-64
2023/09/19 14:46:50;;;;;;;0.70;0.70;;;;;;;;;;5136187;27;20442;-62
2023/09/19 14:49:17;;;;;;;0.80;0.80;;;;;;;;;;5135526;27;20535;-62
2023/09/19 14:51:47;;;;;;;0.70;0.70;;;;;;;;;;5135751;27;20445;-62
2023/09/19 14:54:16;;;;;;;0.70;0.70;;;;;;;;;;5135610;27;20975;-63
2023/09/19 14:56:44;;;;;;;0.70;0.70;;;;;;;;;;5135332;27;20549;-61